Time;durP1;ratioP1;P1;durP2;ratioP2;P2;SDS_P1;SDS_P2;PMS_P1;PMS_P2;Temp;Humidity;BMP_temperature;BMP_pressure;BME280_temperature;BME280_humidity;BME280_pressure;Samples;Min_cycle;Max_cycle;Signal;HPM_P1;HPM_P2
2023/02/18 00:01:54;;;;;;;44.13;30.25;;;;;;;2.39;98.45;97122.50;5118024;27;20023;-69
2023/02/18 00:04:19;;;;;;;48.25;34.15;;;;;;;2.41;96.72;97114.66;5115227;27;20118;-68
2023/02/18 00:06:45;;;;;;;45.08;31.08;;;;;;;2.40;97.82;97112.97;5116821;27;20174;-69
2023/02/18 00:09:10;;;;;;;39.85;27.80;;;;;;;2.38;98.25;97110.41;5117361;27;20039;-69
2023/02/18 00:11:36;;;;;;;43.08;27.83;;;;;;;2.36;97.66;97109.63;5121158;27;20022;-69
2023/02/18 00:14:04;;;;;;;31.92;22.00;;;;;;;2.35;98.20;97113.13;5108796;27;20441;-69
2023/02/18 00:16:30;;;;;;;29.45;22.20;;;;;;;2.33;98.24;97114.09;5118096;27;20027;-65
2023/02/18 00:18:59;;;;;;;34.15;24.45;;;;;;;2.25;98.27;97114.38;5117812;27;20579;-70
2023/02/18 00:21:24;;;;;;;34.05;23.98;;;;;;;2.21;98.03;97111.03;5120436;27;20015;-70
2023/02/18 00:23:50;;;;;;;29.05;22.63;;;;;;;2.19;98.57;97115.44;5118630;27;20084;-70
2023/02/18 00:26:17;;;;;;;32.75;22.60;;;;;;;2.15;97.54;97114.69;5117386;27;20024;-70
2023/02/18 00:28:43;;;;;;;31.17;22.77;;;;;;;2.12;97.01;97109.59;5118316;27;20029;-70
2023/02/18 00:31:12;;;;;;;31.60;22.10;;;;;;;2.12;96.65;97113.97;5118508;27;20033;-70
2023/02/18 00:33:38;;;;;;;30.38;21.48;;;;;;;2.09;98.70;97108.84;5120864;27;20019;-70
2023/02/18 00:36:06;;;;;;;26.58;20.88;;;;;;;2.06;99.19;97106.38;5116372;27;20041;-60
2023/02/18 00:38:32;;;;;;;24.77;20.55;;;;;;;2.09;99.12;97108.84;5115317;27;20513;-60
2023/02/18 00:40:58;;;;;;;26.08;20.00;;;;;;;2.05;98.41;97109.88;5118006;27;20023;-60
2023/02/18 00:43:23;;;;;;;30.60;22.52;;;;;;;1.95;98.72;97107.59;5115552;27;20028;-60
2023/02/18 00:45:49;;;;;;;26.33;20.90;;;;;;;1.91;99.08;97102.56;5118589;27;20076;-60
2023/02/18 00:48:14;;;;;;;26.85;21.77;;;;;;;1.90;98.71;97106.94;5118492;27;20047;-60
2023/02/18 00:50:40;;;;;;;28.92;21.25;;;;;;;1.94;99.13;97105.06;5095008;27;20019;-61
2023/02/18 00:53:05;;;;;;;25.92;20.48;;;;;;;1.90;97.90;97103.47;5116457;27;20107;-60
2023/02/18 00:55:30;;;;;;;24.85;20.00;;;;;;;1.88;97.91;97098.34;5117652;27;20028;-64
2023/02/18 00:57:56;;;;;;;29.33;21.00;;;;;;;1.86;97.81;97107.91;5115237;27;20498;-64
2023/02/18 01:00:21;;;;;;;28.92;19.90;;;;;;;1.84;98.79;97107.13;5119608;27;20023;-64
2023/02/18 01:02:47;;;;;;;28.77;19.73;;;;;;;1.82;97.64;97111.53;5117545;27;20026;-64
2023/02/18 01:05:12;;;;;;;26.80;18.92;;;;;;;1.80;98.90;97103.81;5118338;27;20506;-64
2023/02/18 01:07:38;;;;;;;21.20;17.35;;;;;;;1.78;99.59;97094.34;5118549;27;20106;-64
2023/02/18 01:10:04;;;;;;;18.85;16.85;;;;;;;1.75;98.42;97087.50;5098938;27;21232;-64
2023/02/18 01:12:29;;;;;;;19.52;15.75;;;;;;;1.79;98.12;97083.06;5117923;27;20072;-64
2023/02/18 01:14:55;;;;;;;18.42;15.68;;;;;;;1.79;98.07;97081.34;5114665;27;20446;-73
2023/02/18 01:17:20;;;;;;;19.05;16.52;;;;;;;1.79;98.60;97076.13;5119040;27;20024;-60
2023/02/18 01:19:45;;;;;;;23.90;15.65;;;;;;;1.75;99.45;97079.72;5120531;27;20045;-60
2023/02/18 01:22:11;;;;;;;19.00;15.95;;;;;;;1.75;100.00;97071.94;5096625;28;20043;-60
2023/02/18 01:24:37;;;;;;;23.33;16.63;;;;;;;1.79;100.00;97075.28;5116521;27;20076;-60
2023/02/18 01:27:03;;;;;;;20.67;16.67;;;;;;;1.80;100.00;97071.78;5118512;27;20046;-60
2023/02/18 01:29:28;;;;;;;18.52;15.85;;;;;;;1.79;100.00;97072.69;5118814;27;20051;-60
2023/02/18 01:31:53;;;;;;;19.20;14.82;;;;;;;1.79;100.00;97068.34;5118397;27;20044;-60
2023/02/18 01:34:19;;;;;;;25.88;18.70;;;;;;;1.82;99.08;97067.38;5097238;27;20512;-62
2023/02/18 01:36:44;;;;;;;21.95;15.95;;;;;;;1.81;100.00;97065.69;5116324;27;20603;-62
2023/02/18 01:39:09;;;;;;;20.92;15.82;;;;;;;1.79;100.00;97059.69;5117386;27;20016;-62
2023/02/18 01:41:35;;;;;;;25.40;16.77;;;;;;;1.78;99.65;97063.19;5116273;27;20034;-62
2023/02/18 01:44:20;;;;;;;18.98;14.80;;;;;;;1.80;100.00;97059.66;5111544;27;20023;-62
2023/02/18 01:46:46;;;;;;;19.27;14.18;;;;;;;1.81;100.00;97068.28;5115810;27;20098;-62
2023/02/18 01:49:19;;;;;;;17.50;14.07;;;;;;;1.77;100.00;97062.38;5118352;27;20598;-62
2023/02/18 01:51:51;;;;;;;19.00;13.88;;;;;;;1.79;100.00;97059.69;5114485;27;20655;-67
2023/02/18 01:54:28;;;;;;;20.23;14.15;;;;;;;1.77;100.00;97066.69;5099864;27;20023;-72
2023/02/18 01:56:58;;;;;;;17.65;14.02;;;;;;;1.80;100.00;97064.84;5116607;27;20019;-73
2023/02/18 01:59:33;;;;;;;16.77;12.32;;;;;;;1.75;100.00;97063.31;5120874;27;20092;-73
2023/02/18 02:01:59;;;;;;;18.23;12.10;;;;;;;1.68;100.00;97060.94;5098070;27;20127;-74
2023/02/18 02:04:25;;;;;;;14.77;11.90;;;;;;;1.70;100.00;97066.91;5113359;27;20281;-73
2023/02/18 02:06:51;;;;;;;17.40;12.82;;;;;;;1.57;100.00;97069.09;5119047;27;20031;-73
2023/02/18 02:09:18;;;;;;;15.75;11.63;;;;;;;1.53;100.00;97069.25;5116958;27;20080;-73
2023/02/18 02:12:21;;;;;;;14.63;11.18;;;;;;;1.51;100.00;97076.22;5118496;27;20872;-65
2023/02/18 02:15:18;;;;;;;16.27;11.40;;;;;;;1.46;100.00;97078.16;5115635;27;20027;-62
2023/02/18 02:18:07;;;;;;;14.93;11.40;;;;;;;1.43;100.00;97074.72;5063736;27;20071;-62
2023/02/18 02:20:50;;;;;;;16.60;11.75;;;;;;;1.40;100.00;97068.81;5107039;28;20038;-62
2023/02/18 02:23:31;;;;;;;19.00;14.20;;;;;;;1.32;100.00;97069.06;5107068;28;20081;-62
2023/02/18 02:26:08;;;;;;;22.55;15.70;;;;;;;1.24;100.00;97068.47;5107080;28;20015;-61
2023/02/18 02:29:04;;;;;;;21.52;14.57;;;;;;;1.22;100.00;97070.28;5109813;28;20030;-62
2023/02/18 02:31:58;;;;;;;27.13;16.47;;;;;;;1.21;100.00;97068.56;5105347;28;20018;-63
2023/02/18 02:34:42;;;;;;;20.15;15.82;;;;;;;1.18;100.00;97066.94;5103605;28;20521;-61
2023/02/18 02:37:24;;;;;;;18.02;13.13;;;;;;;1.16;100.00;97065.25;5088092;28;20099;-62
2023/02/18 02:40:08;;;;;;;16.88;13.98;;;;;;;1.17;100.00;97069.56;5079540;28;20036;-62
2023/02/18 02:42:51;;;;;;;19.88;16.05;;;;;;;1.21;100.00;97065.97;5089172;28;20031;-62
2023/02/18 02:45:36;;;;;;;24.20;16.48;;;;;;;1.24;100.00;97068.47;5088973;28;20042;-62
2023/02/18 02:48:20;;;;;;;20.45;16.77;;;;;;;1.17;100.00;97066.97;5071118;28;21376;-63
2023/02/18 02:51:01;;;;;;;21.83;14.43;;;;;;;1.11;100.00;97058.50;5078316;28;20107;-59
2023/02/18 02:53:30;;;;;;;17.85;14.85;;;;;;;1.08;100.00;97056.00;5089220;28;20111;-70
2023/02/18 02:55:55;;;;;;;19.38;15.18;;;;;;;1.03;100.00;97055.31;5089473;28;20049;-70
2023/02/18 02:58:22;;;;;;;17.83;13.77;;;;;;;1.02;100.00;97053.59;5088977;28;20162;-70
2023/02/18 03:01:02;;;;;;;16.08;13.02;;;;;;;1.02;100.00;97045.81;5089406;28;20040;-70
2023/02/18 03:03:33;;;;;;;15.65;12.50;;;;;;;1.03;100.00;97047.53;5086199;28;20088;-70
2023/02/18 03:06:11;;;;;;;15.95;12.73;;;;;;;1.03;100.00;97054.44;5089167;28;20020;-70
2023/02/18 03:08:39;;;;;;;14.63;12.65;;;;;;;0.96;100.00;97052.06;5088828;28;20089;-62
2023/02/18 03:11:09;;;;;;;15.10;12.82;;;;;;;1.02;100.00;97058.78;5087877;28;20040;-60
2023/02/18 03:13:46;;;;;;;14.93;12.27;;;;;;;1.07;100.00;97059.50;5087212;28;20110;-63
2023/02/18 03:16:34;;;;;;;20.67;14.02;;;;;;;1.05;100.00;97052.66;5088751;28;20031;-62
2023/02/18 03:19:15;;;;;;;17.83;13.30;;;;;;;1.04;100.00;97061.31;5089173;28;20031;-62
2023/02/18 03:21:59;;;;;;;16.42;13.02;;;;;;;1.03;100.00;97064.81;5082985;28;20085;-63
2023/02/18 03:24:35;;;;;;;15.13;13.52;;;;;;;0.95;100.00;97065.06;5089119;28;20032;-62
2023/02/18 03:27:11;;;;;;;14.68;13.07;;;;;;;0.95;100.00;97059.88;5071910;28;20028;-62
2023/02/18 03:29:37;;;;;;;15.88;12.82;;;;;;;0.93;100.00;97059.94;5069531;28;20081;-60
2023/02/18 03:32:06;;;;;;;14.70;12.68;;;;;;;0.89;100.00;97053.16;5053063;28;20031;-67
2023/02/18 03:34:37;;;;;;;16.58;13.70;;;;;;;0.85;100.00;97059.31;5100365;28;20036;-67
2023/02/18 03:37:04;;;;;;;16.02;12.45;;;;;;;0.84;100.00;97050.69;5111347;28;20031;-68
2023/02/18 03:39:33;;;;;;;16.73;13.13;;;;;;;0.78;100.00;97047.44;5112218;28;20024;-68
2023/02/18 03:41:59;;;;;;;16.73;13.20;;;;;;;0.75;100.00;97045.78;5111346;28;20084;-67
2023/02/18 03:44:25;;;;;;;15.40;12.77;;;;;;;0.76;100.00;97044.06;5093209;28;20031;-67
2023/02/18 03:46:51;;;;;;;16.85;12.90;;;;;;;0.74;100.00;97044.09;5111454;28;20016;-60
2023/02/18 03:49:16;;;;;;;15.73;12.77;;;;;;;0.79;100.00;97047.41;5110977;28;20111;-71
2023/02/18 03:51:42;;;;;;;16.08;11.77;;;;;;;0.82;100.00;97046.44;5111151;28;20099;-63
2023/02/18 03:54:08;;;;;;;16.23;13.43;;;;;;;0.77;100.00;97053.53;5111332;28;20023;-63
2023/02/18 03:56:35;;;;;;;17.35;12.27;;;;;;;0.75;100.00;97050.13;5124270;27;20122;-62
2023/02/18 03:59:01;;;;;;;12.40;11.02;;;;;;;0.77;100.00;97049.19;5093282;28;20102;-62
2023/02/18 04:01:27;;;;;;;14.45;11.57;;;;;;;0.80;100.00;97049.09;5111414;27;20106;-62
2023/02/18 04:03:54;;;;;;;13.15;11.60;;;;;;;0.79;100.00;97050.00;5111351;28;20019;-63
2023/02/18 04:06:22;;;;;;;12.40;10.10;;;;;;;0.82;100.00;97056.81;5110836;28;20085;-68
2023/02/18 04:08:48;;;;;;;15.13;10.38;;;;;;;0.84;100.00;97061.06;5111128;28;20080;-63
2023/02/18 04:11:13;;;;;;;10.90;9.80;;;;;;;0.83;100.00;97056.78;5110448;28;20027;-63
2023/02/18 04:13:39;;;;;;;12.40;10.18;;;;;;;0.83;100.00;97058.50;5111140;28;20480;-63
2023/02/18 04:16:05;;;;;;;12.70;9.13;;;;;;;0.78;100.00;97056.09;5111278;28;20016;-62
2023/02/18 04:18:30;;;;;;;11.38;9.20;;;;;;;0.75;100.00;97050.97;5110803;28;20016;-62
2023/02/18 04:20:56;;;;;;;12.35;9.75;;;;;;;0.70;100.00;97055.47;5110683;28;20027;-62
2023/02/18 04:23:21;;;;;;;14.02;9.20;;;;;;;0.64;100.00;97056.50;5111032;28;20022;-62
2023/02/18 04:25:47;;;;;;;12.13;9.13;;;;;;;0.65;100.00;97059.94;5099663;28;20405;-67
2023/02/18 04:28:15;;;;;;;10.77;8.43;;;;;;;0.64;100.00;97058.25;5092379;28;20095;-63
2023/02/18 04:30:41;;;;;;;15.50;13.85;;;;;;;0.66;100.00;97062.50;5110698;28;20068;-63
2023/02/18 04:33:07;;;;;;;11.00;9.07;;;;;;;0.67;100.00;97064.19;5110760;28;20027;-63
2023/02/18 04:35:32;;;;;;;12.98;9.10;;;;;;;0.63;100.00;97056.56;5101867;28;20055;-62
2023/02/18 04:37:57;;;;;;;14.63;9.10;;;;;;;0.60;100.00;97054.88;5092371;28;20060;-62
2023/02/18 04:40:25;;;;;;;11.05;9.95;;;;;;;0.54;100.00;97045.56;5091940;28;20732;-62
2023/02/18 04:42:50;;;;;;;10.07;8.85;;;;;;;0.52;100.00;97055.13;5091597;28;20452;-63
2023/02/18 04:45:16;;;;;;;10.75;9.07;;;;;;;0.50;100.00;97059.50;5089295;28;20099;-60
2023/02/18 04:47:41;;;;;;;10.07;9.02;;;;;;;0.52;100.00;97049.09;5086239;28;20440;-60
2023/02/18 04:50:07;;;;;;;9.90;8.93;;;;;;;0.61;100.00;97058.34;5089937;28;20028;-62
2023/02/18 04:52:32;;;;;;;9.68;8.80;;;;;;;0.55;100.00;97057.66;5064222;28;20051;-62
2023/02/18 04:54:58;;;;;;;10.07;8.95;;;;;;;0.53;100.00;97054.22;5083163;28;20093;-62
2023/02/18 04:57:23;;;;;;;10.82;9.73;;;;;;;0.54;100.00;97050.75;5089769;28;20111;-62
2023/02/18 04:59:49;;;;;;;11.25;8.57;;;;;;;0.51;100.00;97058.59;5089424;28;20504;-62
2023/02/18 05:02:14;;;;;;;11.20;8.75;;;;;;;0.47;100.00;97053.59;5091728;28;20077;-62
2023/02/18 05:04:39;;;;;;;9.43;8.43;;;;;;;0.47;100.00;97046.66;5102727;28;20389;-73
2023/02/18 05:07:05;;;;;;;13.20;9.18;;;;;;;0.47;100.00;97048.41;5076661;28;20016;-70
2023/02/18 05:09:30;;;;;;;13.15;8.23;;;;;;;0.52;100.00;97054.28;5088931;28;20098;-60
2023/02/18 05:11:55;;;;;;;9.48;8.57;;;;;;;0.56;100.00;97051.56;5071262;28;20030;-59
2023/02/18 05:14:21;;;;;;;9.98;8.93;;;;;;;0.67;100.00;97052.97;5086775;28;20394;-61
2023/02/18 05:16:46;;;;;;;9.80;8.88;;;;;;;0.75;100.00;97045.78;5088537;28;20478;-60
2023/02/18 05:19:14;;;;;;;12.63;8.43;;;;;;;0.79;100.00;97038.78;5089308;28;20125;-60
2023/02/18 05:21:39;;;;;;;9.07;8.32;;;;;;;0.82;100.00;97047.31;5074481;28;20047;-60
2023/02/18 05:24:05;;;;;;;9.30;8.40;;;;;;;0.85;100.00;97047.22;5087573;28;20497;-60
2023/02/18 05:26:30;;;;;;;8.90;8.00;;;;;;;0.85;100.00;97034.25;5089693;28;20023;-73
2023/02/18 05:28:56;;;;;;;8.93;8.02;;;;;;;0.88;100.00;97035.88;5089810;28;20442;-71
2023/02/18 05:31:21;;;;;;;9.80;7.93;;;;;;;0.93;100.00;97039.19;5050960;28;20678;-71
2023/02/18 05:33:47;;;;;;;10.55;8.55;;;;;;;0.92;100.00;97034.91;5083426;28;20043;-72
2023/02/18 05:36:12;;;;;;;9.85;8.13;;;;;;;0.89;100.00;97036.75;5109048;28;20030;-71
2023/02/18 05:38:37;;;;;;;9.80;8.80;;;;;;;0.87;100.00;97030.75;5109326;28;20219;-71
2023/02/18 05:41:03;;;;;;;10.25;8.85;;;;;;;0.83;100.00;97032.59;5108936;28;20247;-72
2023/02/18 05:43:28;;;;;;;10.07;8.70;;;;;;;0.78;100.00;97032.75;5109109;28;20362;-60
2023/02/18 05:45:54;;;;;;;9.15;8.07;;;;;;;0.74;100.00;97028.53;5096615;28;20374;-63
2023/02/18 05:48:19;;;;;;;10.10;8.27;;;;;;;0.70;100.00;97027.81;5108485;28;20046;-74
2023/02/18 05:50:44;;;;;;;14.70;9.07;;;;;;;0.67;100.00;97019.28;5109132;28;20016;-74
2023/02/18 05:53:10;;;;;;;13.55;9.10;;;;;;;0.64;100.00;97027.16;5109054;28;20031;-73
2023/02/18 05:55:37;;;;;;;11.80;8.82;;;;;;;0.66;100.00;97022.75;5108731;28;20130;-73
2023/02/18 05:58:04;;;;;;;13.15;8.73;;;;;;;0.68;100.00;97026.16;5090078;28;20023;-73
2023/02/18 06:00:30;;;;;;;12.95;9.13;;;;;;;0.74;100.00;97022.53;5106082;28;20016;-74
2023/02/18 06:02:56;;;;;;;13.82;8.95;;;;;;;0.79;100.00;97018.91;5107839;27;20046;-62
2023/02/18 06:05:21;;;;;;;12.18;9.38;;;;;;;0.84;100.00;97024.78;5107183;28;20370;-73
2023/02/18 06:07:47;;;;;;;12.90;10.02;;;;;;;0.89;100.00;97028.97;5108337;28;20060;-68
2023/02/18 06:10:12;;;;;;;11.40;10.20;;;;;;;0.96;100.00;97030.44;5108961;28;20028;-67
2023/02/18 06:12:37;;;;;;;10.38;9.43;;;;;;;1.02;100.00;97032.00;5108870;28;20023;-67
2023/02/18 06:15:03;;;;;;;9.88;8.90;;;;;;;1.12;100.00;97034.25;5090530;28;20035;-67
2023/02/18 06:17:29;;;;;;;10.63;9.52;;;;;;;1.23;100.00;97039.06;5108459;28;20072;-68
2023/02/18 06:19:54;;;;;;;8.95;8.05;;;;;;;1.31;100.00;97046.59;5090399;28;20421;-68
2023/02/18 06:22:21;;;;;;;9.80;8.90;;;;;;;1.42;100.00;97048.84;5108215;28;20098;-63
2023/02/18 06:24:46;;;;;;;52.40;22.65;;;;;;;1.47;100.00;97040.91;5086366;28;20040;-60
2023/02/18 06:27:11;;;;;;;27.25;14.30;;;;;;;1.55;100.00;97047.53;5108374;28;20477;-60
2023/02/18 06:29:37;;;;;;;100.70;39.25;;;;;;;1.60;100.00;97052.53;5109019;28;20026;-60
2023/02/18 06:32:03;;;;;;;15.10;9.70;;;;;;;1.67;100.00;97048.00;5108875;28;20031;-60
2023/02/18 06:34:28;;;;;;;13.95;12.50;;;;;;;1.62;100.00;97053.34;5102236;28;20085;-60
2023/02/18 06:36:53;;;;;;;20.20;18.00;;;;;;;1.65;100.00;97055.81;5106980;28;20028;-60
2023/02/18 06:39:19;;;;;;;20.80;17.80;;;;;;;1.71;100.00;97055.63;5109285;28;20058;-60
2023/02/18 06:41:44;;;;;;;21.80;16.60;;;;;;;1.66;100.00;97054.09;5108508;28;20015;-60
2023/02/18 06:44:10;;;;;;;21.42;15.88;;;;;;;1.64;100.00;97058.50;5109190;28;20027;-73
2023/02/18 06:46:36;;;;;;;18.77;14.82;;;;;;;1.62;100.00;97057.69;5108440;28;20064;-73
2023/02/18 06:49:02;;;;;;;19.63;17.52;;;;;;;1.60;100.00;97068.13;5107938;28;20035;-73
2023/02/18 06:51:27;;;;;;;20.70;14.27;;;;;;;1.54;100.00;97065.75;5107677;28;20028;-73
2023/02/18 06:53:53;;;;;;;15.82;12.65;;;;;;;1.52;100.00;97063.19;5106502;28;20555;-73
2023/02/18 06:56:18;;;;;;;14.52;11.25;;;;;;;1.49;100.00;97057.28;5108205;28;20586;-73
2023/02/18 06:58:43;;;;;;;14.90;12.10;;;;;;;1.46;100.00;97058.22;5107561;28;20047;-73
2023/02/18 07:01:09;;;;;;;17.40;13.20;;;;;;;1.41;100.00;97055.75;5109322;28;20032;-59
2023/02/18 07:03:34;;;;;;;14.95;12.65;;;;;;;1.35;100.00;97052.56;5111189;28;20656;-60
2023/02/18 07:06:00;;;;;;;15.80;11.73;;;;;;;1.31;100.00;97054.38;5108239;28;20015;-60
2023/02/18 07:08:25;;;;;;;23.20;16.73;;;;;;;1.34;100.00;97048.25;5109171;28;20107;-60
2023/02/18 07:10:51;;;;;;;26.17;18.52;;;;;;;1.34;100.00;97049.09;5094161;28;20517;-60
2023/02/18 07:13:16;;;;;;;22.05;16.77;;;;;;;1.31;100.00;97046.59;5111916;28;20026;-60
2023/02/18 07:15:42;;;;;;;22.33;16.17;;;;;;;1.29;100.00;97056.19;5111946;28;20019;-60
2023/02/18 07:18:07;;;;;;;17.70;15.10;;;;;;;1.22;100.00;97052.94;5111730;28;20024;-60
2023/02/18 07:20:32;;;;;;;19.88;13.88;;;;;;;1.21;100.00;97052.97;5112310;28;20495;-63
2023/02/18 07:22:58;;;;;;;18.33;15.50;;;;;;;1.22;100.00;97055.53;5111731;28;20028;-63
2023/02/18 07:25:23;;;;;;;17.20;15.02;;;;;;;1.26;100.00;97046.75;5112110;28;20023;-62
2023/02/18 07:27:49;;;;;;;18.42;15.25;;;;;;;1.24;100.00;97048.56;5112106;28;20019;-63
2023/02/18 07:30:15;;;;;;;20.85;18.75;;;;;;;1.29;100.00;97051.84;5111895;28;20036;-63
2023/02/18 07:32:42;;;;;;;20.63;18.45;;;;;;;1.35;100.00;97049.97;5111444;28;20050;-62
2023/02/18 07:35:07;;;;;;;21.92;19.38;;;;;;;1.35;100.00;97045.59;5094273;28;20476;-62
2023/02/18 07:37:32;;;;;;;20.77;18.55;;;;;;;1.35;100.00;97043.00;5092967;28;20024;-63
2023/02/18 07:39:58;;;;;;;22.58;18.08;;;;;;;1.35;100.00;97045.59;5094462;28;20103;-72
2023/02/18 07:42:23;;;;;;;19.98;17.70;;;;;;;1.32;100.00;97050.03;5097200;28;20502;-62
2023/02/18 07:44:49;;;;;;;21.00;17.67;;;;;;;1.28;100.00;97046.72;5091137;28;20026;-62
2023/02/18 07:47:17;;;;;;;22.67;20.38;;;;;;;1.26;100.00;97049.34;5096640;28;20097;-63
2023/02/18 07:49:43;;;;;;;27.13;22.60;;;;;;;1.29;100.00;97040.63;5090465;28;20023;-63
2023/02/18 07:52:08;;;;;;;28.55;24.80;;;;;;;1.29;100.00;97041.44;5092508;28;20470;-63
2023/02/18 07:54:34;;;;;;;21.63;19.35;;;;;;;1.31;100.00;97046.59;5090792;28;20039;-63
2023/02/18 07:56:59;;;;;;;20.75;18.60;;;;;;;1.33;100.00;97047.41;5090713;28;20497;-62
2023/02/18 07:59:25;;;;;;;25.50;23.13;;;;;;;1.38;100.00;97049.84;5088583;28;20112;-62
2023/02/18 08:01:50;;;;;;;23.35;21.00;;;;;;;1.38;100.00;97055.03;5098242;28;20039;-73
2023/02/18 08:04:15;;;;;;;21.77;19.00;;;;;;;1.33;100.00;97051.75;5090048;28;20142;-73
2023/02/18 08:06:44;;;;;;;22.05;19.88;;;;;;;1.32;100.00;97047.44;5090090;28;20478;-73
2023/02/18 08:09:10;;;;;;;24.15;21.65;;;;;;;1.34;100.00;97048.25;5096329;28;20024;-75
2023/02/18 08:11:36;;;;;;;23.30;20.80;;;;;;;1.36;100.00;97043.88;5094215;27;20026;-71
2023/02/18 08:14:01;;;;;;;22.90;20.50;;;;;;;1.42;100.00;97041.88;5098103;28;20550;-72
2023/02/18 08:16:27;;;;;;;23.15;20.48;;;;;;;1.49;100.00;97045.13;5089387;28;20043;-70
2023/02/18 08:18:53;;;;;;;21.20;19.02;;;;;;;1.52;100.00;97041.59;5077731;28;20123;-62
2023/02/18 08:21:21;;;;;;;21.30;17.90;;;;;;;1.56;100.00;97040.56;5085975;27;20134;-63
2023/02/18 08:23:47;;;;;;;23.42;21.15;;;;;;;1.55;100.00;97047.53;5076794;28;20028;-64
2023/02/18 08:26:13;;;;;;;26.88;21.45;;;;;;;1.53;100.00;97048.47;5086852;28;20069;-63
2023/02/18 08:28:38;;;;;;;20.50;18.55;;;;;;;1.56;100.00;97045.78;5094110;28;20024;-64
2023/02/18 08:31:04;;;;;;;23.77;21.23;;;;;;;1.66;100.00;97038.50;5083363;28;20048;-64
2023/02/18 08:33:30;;;;;;;25.13;22.60;;;;;;;1.92;100.00;97053.19;5122914;27;20028;-62
2023/02/18 08:35:55;;;;;;;22.08;19.83;;;;;;;2.50;100.00;97045.88;5091839;28;20048;-63
2023/02/18 08:38:22;;;;;;;21.48;19.35;;;;;;;3.24;100.00;97044.72;5089330;28;20024;-63
2023/02/18 08:40:47;;;;;;;20.67;18.42;;;;;;;3.99;100.00;97045.03;5085898;28;20032;-65
2023/02/18 08:43:14;;;;;;;15.15;13.00;;;;;;;4.62;99.22;97056.09;5098543;28;20092;-64
2023/02/18 08:45:39;;;;;;;17.58;15.48;;;;;;;5.11;96.51;97045.94;5094263;28;20176;-62
2023/02/18 08:48:07;;;;;;;14.70;10.60;;;;;;;5.64;94.43;97058.16;5086562;28;20517;-66
2023/02/18 08:50:32;;;;;;;11.18;8.90;;;;;;;5.99;92.86;97053.75;5088208;28;20043;-68
2023/02/18 08:53:02;;;;;;;13.52;9.80;;;;;;;6.40;91.20;97051.66;5084607;28;20043;-67
2023/02/18 08:55:38;;;;;;;12.82;10.85;;;;;;;6.79;88.96;97058.28;5090608;28;20046;-64
2023/02/18 08:58:04;;;;;;;12.45;9.43;;;;;;;7.05;86.36;97063.84;5093422;28;20020;-64
2023/02/18 09:00:30;;;;;;;9.90;7.07;;;;;;;7.41;85.87;97060.06;5096032;28;20466;-64
2023/02/18 09:02:55;;;;;;;10.88;7.60;;;;;;;7.68;84.80;97061.13;5095468;28;20051;-62
2023/02/18 09:05:20;;;;;;;19.23;14.13;;;;;;;7.89;83.78;97067.72;5094630;28;20031;-61
2023/02/18 09:07:46;;;;;;;24.58;17.75;;;;;;;7.99;83.27;97067.19;5087587;28;20055;-61
2023/02/18 09:10:11;;;;;;;21.35;16.88;;;;;;;8.01;83.70;97065.31;5092717;28;20028;-62
2023/02/18 09:12:37;;;;;;;27.00;20.67;;;;;;;8.13;83.67;97066.38;5092037;28;20032;-62
2023/02/18 09:15:03;;;;;;;16.40;13.63;;;;;;;8.13;83.92;97067.19;5104374;28;20073;-60
2023/02/18 09:17:29;;;;;;;17.73;12.73;;;;;;;8.03;84.74;97055.59;5098310;28;20024;-61
2023/02/18 09:19:54;;;;;;;18.02;12.02;;;;;;;7.97;84.01;97062.03;5088004;28;20036;-62
2023/02/18 09:22:20;;;;;;;14.50;11.93;;;;;;;7.96;83.67;97065.59;5087854;28;20032;-61
2023/02/18 09:24:45;;;;;;;10.65;9.30;;;;;;;8.10;82.93;97056.06;5093125;28;20032;-60
2023/02/18 09:27:11;;;;;;;17.48;11.25;;;;;;;8.16;82.85;97060.94;5090690;28;20028;-59
2023/02/18 09:29:38;;;;;;;20.20;11.75;;;;;;;8.24;82.22;97052.59;5092211;28;20051;-60
2023/02/18 09:32:06;;;;;;;14.38;11.18;;;;;;;8.45;81.37;97056.53;5090294;28;20502;-61
2023/02/18 09:34:31;;;;;;;24.08;15.77;;;;;;;8.74;80.82;97055.66;5094621;28;20048;-64
2023/02/18 09:36:57;;;;;;;15.88;11.50;;;;;;;8.89;77.81;97054.69;5098152;28;20054;-69
2023/02/18 09:39:22;;;;;;;9.23;7.25;;;;;;;9.22;77.65;97043.91;5086592;28;20073;-61
2023/02/18 09:41:54;;;;;;;8.88;6.03;;;;;;;9.46;75.29;97054.56;5116799;27;20020;-63
2023/02/18 09:44:37;;;;;;;9.85;8.07;;;;;;;9.75;73.79;97042.09;5125698;27;20020;-62
2023/02/18 09:47:20;;;;;;;12.50;8.90;;;;;;;10.13;73.10;97039.59;5090155;28;20023;-63
2023/02/18 09:49:54;;;;;;;9.63;5.43;;;;;;;10.44;68.70;97033.06;5087878;28;20034;-62
2023/02/18 09:52:26;;;;;;;11.18;6.35;;;;;;;10.82;68.16;97031.28;5087749;28;20520;-63
2023/02/18 09:54:52;;;;;;;11.23;5.80;;;;;;;10.91;65.90;97028.91;5092576;28;20084;-67
2023/02/18 09:57:25;;;;;;;10.18;5.60;;;;;;;11.08;64.28;97022.44;5093951;28;20020;-65
2023/02/18 09:59:59;;;;;;;7.03;5.50;;;;;;;11.49;63.00;97018.50;5085098;28;20031;-68
2023/02/18 10:02:26;;;;;;;7.83;4.50;;;;;;;11.69;61.83;97018.81;5095362;28;20024;-66
2023/02/18 10:04:53;;;;;;;7.40;4.75;;;;;;;11.99;61.66;97012.97;5088202;28;20172;-67
2023/02/18 10:07:27;;;;;;;4.85;4.32;;;;;;;12.21;58.79;97008.72;5088575;28;20020;-69
2023/02/18 10:09:55;;;;;;;5.60;4.97;;;;;;;12.36;58.39;97011.13;5087798;28;20082;-67
2023/02/18 10:12:23;;;;;;;7.25;4.57;;;;;;;12.51;57.13;97011.69;5094042;28;20032;-61
2023/02/18 10:14:54;;;;;;;6.82;4.60;;;;;;;12.39;57.85;97008.22;5088585;28;20386;-61
2023/02/18 10:17:23;;;;;;;5.93;4.32;;;;;;;12.37;57.05;97016.25;5093964;28;20023;-61
2023/02/18 10:19:51;;;;;;;8.48;4.63;;;;;;;12.36;57.18;97013.75;5094337;28;20115;-62
2023/02/18 10:22:18;;;;;;;8.30;4.38;;;;;;;12.51;58.63;97015.19;5094017;28;20076;-61
2023/02/18 10:24:54;;;;;;;7.97;5.28;;;;;;;12.72;53.79;97011.81;5089660;28;20080;-61
2023/02/18 10:27:24;;;;;;;7.82;4.68;;;;;;;12.86;54.76;97013.34;5090942;28;20102;-60
2023/02/18 10:29:49;;;;;;;5.82;4.45;;;;;;;12.87;53.00;97004.44;5093240;28;20041;-59
2023/02/18 10:32:31;;;;;;;8.43;5.32;;;;;;;12.66;54.51;97004.34;5089160;28;20032;-64
2023/02/18 10:35:17;;;;;;;7.95;4.80;;;;;;;12.71;53.07;96999.53;5092186;28;20067;-72
2023/02/18 10:38:03;;;;;;;6.07;4.70;;;;;;;12.52;53.67;97005.47;5104233;28;20246;-60
2023/02/18 10:40:48;;;;;;;7.95;5.10;;;;;;;12.86;52.70;97000.13;5101792;28;20024;-60
2023/02/18 10:43:25;;;;;;;7.65;4.70;;;;;;;13.44;50.86;97001.59;5100199;28;20115;-61
2023/02/18 10:46:01;;;;;;;5.35;4.22;;;;;;;13.42;52.37;96999.06;5102642;28;20035;-60
2023/02/18 10:48:35;;;;;;;;;;;;;;;13.62;49.21;96999.25;5104898;28;20035;-61
2023/02/18 10:51:11;;;;;;;7.75;5.47;;;;;;;13.48;49.73;97002.19;5100816;28;19911;-60
2023/02/18 10:53:41;;;;;;;8.52;4.18;;;;;;;13.69;48.70;96991.59;5104712;28;20573;-62
2023/02/18 10:56:07;;;;;;;5.65;4.07;;;;;;;13.71;48.52;96992.34;5102629;28;20043;-63
2023/02/18 10:58:47;;;;;;;6.82;5.03;;;;;;;13.69;47.98;96984.53;5105495;28;20426;-61
2023/02/18 11:01:15;;;;;;;9.55;4.60;;;;;;;13.40;50.28;96985.13;5103644;28;20024;-63
2023/02/18 11:03:45;;;;;;;4.85;4.13;;;;;;;13.65;49.41;96983.09;5106249;28;20067;-63
2023/02/18 11:06:31;;;;;;;7.63;4.32;;;;;;;14.15;48.10;96979.75;5106206;28;20022;-62
2023/02/18 11:08:58;;;;;;;5.03;4.43;;;;;;;14.39;48.04;96959.19;5103845;28;20026;-62
2023/02/18 11:11:29;;;;;;;5.28;4.10;;;;;;;14.86;47.63;96962.09;5105260;28;20043;-61
2023/02/18 11:13:59;;;;;;;7.78;4.25;;;;;;;14.75;47.58;96959.59;5106416;28;20035;-60
2023/02/18 11:16:37;;;;;;;5.63;4.10;;;;;;;14.88;47.93;96962.81;5102953;28;20413;-60
2023/02/18 11:19:03;;;;;;;4.68;3.60;;;;;;;15.41;44.68;96960.75;5107130;28;20035;-59
2023/02/18 11:21:35;;;;;;;5.35;3.75;;;;;;;15.38;44.85;96954.88;5103410;28;20051;-59
2023/02/18 11:24:15;;;;;;;7.18;3.95;;;;;;;14.90;45.27;96952.09;5107976;28;20031;-60
2023/02/18 11:26:43;;;;;;;5.60;3.63;;;;;;;15.22;45.89;96956.25;5107771;28;20020;-59
2023/02/18 11:29:23;;;;;;;6.28;3.50;;;;;;;16.00;43.83;96944.69;5107553;28;20027;-58
2023/02/18 11:31:51;;;;;;;4.90;3.83;;;;;;;16.16;43.68;96943.25;5107937;28;20022;-61